sensor_id;sensor_type;location;lat;lon;timestamp;pressure;altitude;pressure_sealevel;temperature;humidity
26915;BME280;14480;52.608;13.416;2023-04-03T04:34:17;139595.69;;;-18.10;100.00
26915;BME280;14480;52.608;13.416;2023-04-03T04:39:22;139610.41;;;-18.04;100.00
26915;BME280;14480;52.608;13.416;2023-04-03T04:44:25;139603.03;;;-18.07;100.00
26915;BME280;14480;52.608;13.416;2023-04-03T04:49:30;139634.88;;;-17.93;100.00
26915;BME280;14480;52.608;13.416;2023-04-03T04:54:35;139638.53;;;-17.92;100.00
26915;BME280;14480;52.608;13.416;2023-04-03T04:59:38;139731.47;;;-17.53;100.00
26915;BME280;14480;52.608;13.416;2023-04-03T05:04:43;139945.75;;;-16.64;100.00
26915;BME280;14480;52.608;13.416;2023-04-03T05:09:53;140124.69;;;-15.90;100.00
26915;BME280;14480;52.608;13.416;2023-04-03T05:14:58;140259.56;;;-15.34;100.00
26915;BME280;14480;52.608;13.416;2023-04-03T05:20:06;140530.78;;;-14.22;100.00
26915;BME280;14480;52.608;13.416;2023-04-03T05:25:09;140599.53;;;-13.93;100.00
26915;BME280;14480;52.608;13.416;2023-04-03T05:30:17;140675.72;;;-13.62;100.00
26915;BME280;14480;52.608;13.416;2023-04-03T05:35:24;140753.19;;;-13.30;100.00
26915;BME280;14480;52.608;13.416;2023-04-03T05:40:32;140801.03;;;-13.10;100.00
26915;BME280;14480;52.608;13.416;2023-04-03T05:45:36;141065.53;;;-12.00;100.00
26915;BME280;14480;52.608;13.416;2023-04-03T05:50:40;140935.09;;;-12.54;100.00
26915;BME280;14480;52.608;13.416;2023-04-03T05:55:49;140920.34;;;-12.60;100.00
26915;BME280;14480;52.608;13.416;2023-04-03T06:00:55;141085.19;;;-11.92;100.00
26915;BME280;14480;52.608;13.416;2023-04-03T06:06:27;141043.38;;;-12.10;100.00
26915;BME280;14480;52.608;13.416;2023-04-03T06:11:45;141099.97;;;-11.86;100.00
26915;BME280;14480;52.608;13.416;2023-04-03T06:16:50;141200.91;;;-11.44;100.00
26915;BME280;14480;52.608;13.416;2023-04-03T06:21:55;141117.25;;;-11.79;100.00
26915;BME280;14480;52.608;13.416;2023-04-03T06:26:59;141157.78;;;-11.62;100.00
26915;BME280;14480;52.608;13.416;2023-04-03T06:32:02;141161.47;;;-11.61;100.00
26915;BME280;14480;52.608;13.416;2023-04-03T06:37:11;141139.31;;;-11.70;100.00
26915;BME280;14480;52.608;13.416;2023-04-03T06:42:18;141114.78;;;-11.80;100.00
26915;BME280;14480;52.608;13.416;2023-04-03T06:47:28;141157.78;;;-11.62;100.00
26915;BME280;14480;52.608;13.416;2023-04-03T06:52:35;141157.78;;;-11.62;100.00
26915;BME280;14480;52.608;13.416;2023-04-03T06:57:40;141063.06;;;-12.01;100.00
26915;BME280;14480;52.608;13.416;2023-04-03T07:02:44;141087.69;;;-11.91;100.00
26915;BME280;14480;52.608;13.416;2023-04-03T07:07:49;141092.63;;;-11.89;100.00
26915;BME280;14480;52.608;13.416;2023-04-03T07:12:53;140786.31;;;-13.16;100.00
26915;BME280;14480;52.608;13.416;2023-04-03T07:17:56;140724.91;;;-13.41;100.00
26915;BME280;14480;52.608;13.416;2023-04-03T07:23:01;140722.44;;;-13.42;100.00
26915;BME280;14480;52.608;13.416;2023-04-03T07:28:05;140791.22;;;-13.14;100.00
26915;BME280;14480;52.608;13.416;2023-04-03T07:33:10;140847.78;;;-12.90;100.00
26915;BME280;14480;52.608;13.416;2023-04-03T07:38:15;140932.63;;;-12.55;100.00
26915;BME280;14480;52.608;13.416;2023-04-03T07:43:20;140948.66;;;-12.49;100.00
26915;BME280;14480;52.608;13.416;2023-04-03T07:48:24;140970.75;;;-12.40;100.00
26915;BME280;14480;52.608;13.416;2023-04-03T07:53:29;140990.44;;;-12.31;100.00
26915;BME280;14480;52.608;13.416;2023-04-03T07:58:37;140894.53;;;-12.71;100.00
26915;BME280;14480;52.608;13.416;2023-04-03T08:03:40;140821.94;;;-13.01;100.00
26915;BME280;14480;52.608;13.416;2023-04-03T08:08:45;140814.59;;;-13.04;100.00
26915;BME280;14480;52.608;13.416;2023-04-03T08:13:49;140774.03;;;-13.21;100.00
26915;BME280;14480;52.608;13.416;2023-04-03T08:18:54;140769.13;;;-13.23;100.00
26915;BME280;14480;52.608;13.416;2023-04-03T08:24:02;140788.75;;;-13.15;100.00
26915;BME280;14480;52.608;13.416;2023-04-03T08:29:08;140779.00;;;-13.19;100.00
26915;BME280;14480;52.608;13.416;2023-04-03T08:34:12;140710.13;;;-13.47;100.00
26915;BME280;14480;52.608;13.416;2023-04-03T08:39:18;140781.41;;;-13.18;100.00
26915;BME280;14480;52.608;13.416;2023-04-03T08:44:24;140820.72;;;-13.02;100.00
26915;BME280;14480;52.608;13.416;2023-04-03T08:49:30;140850.22;;;-12.89;100.00
26915;BME280;14480;52.608;13.416;2023-04-03T08:54:37;140835.50;;;-12.96;100.00
26915;BME280;14480;52.608;13.416;2023-04-03T08:59:44;140844.09;;;-12.92;100.00
26915;BME280;14480;52.608;13.416;2023-04-03T09:04:49;140888.34;;;-12.74;100.00
26915;BME280;14480;52.608;13.416;2023-04-03T09:09:57;141022.44;;;-12.18;100.00
26915;BME280;14480;52.608;13.416;2023-04-03T09:15:08;141178.75;;;-11.54;100.00
26915;BME280;14480;52.608;13.416;2023-04-03T09:20:17;141116.00;;;-11.80;94.15
26915;BME280;14480;52.608;13.416;2023-04-03T09:25:24;141134.41;;;-11.72;92.44
26915;BME280;14480;52.608;13.416;2023-04-03T09:30:28;141152.88;;;-11.64;93.86
26915;BME280;14480;52.608;13.416;2023-04-03T09:35:33;141244.00;;;-11.27;89.77
26915;BME280;14480;52.608;13.416;2023-04-03T09:40:51;141327.75;;;-10.92;87.33
26915;BME280;14480;52.608;13.416;2023-04-03T09:46:23;141234.16;;;-11.31;86.35
26915;BME280;14480;52.608;13.416;2023-04-03T09:51:29;141228.00;;;-11.33;87.02
26915;BME280;14480;52.608;13.416;2023-04-03T09:56:35;141239.06;;;-11.29;84.64
26915;BME280;14480;52.608;13.416;2023-04-03T10:01:39;141199.69;;;-11.45;85.26
26915;BME280;14480;52.608;13.416;2023-04-03T10:06:45;141183.66;;;-11.52;83.82
26915;BME280;14480;52.608;13.416;2023-04-03T10:12:02;141195.94;;;-11.47;83.70
26915;BME280;14480;52.608;13.416;2023-04-03T10:17:14;141175.06;;;-11.55;82.49
26915;BME280;14480;52.608;13.416;2023-04-03T10:22:23;141236.63;;;-11.30;81.37
26915;BME280;14480;52.608;13.416;2023-04-03T10:27:35;141221.81;;;-11.36;80.83
26915;BME280;14480;52.608;13.416;2023-04-03T10:32:50;141207.06;;;-11.42;80.87
26915;BME280;14480;52.608;13.416;2023-04-03T10:38:01;141313.00;;;-10.98;82.48
26915;BME280;14480;52.608;13.416;2023-04-03T10:43:08;141280.94;;;-11.11;81.98
26915;BME280;14480;52.608;13.416;2023-04-03T10:48:14;141351.16;;;-10.82;81.24
26915;BME280;14480;52.608;13.416;2023-04-03T10:53:23;141305.56;;;-11.01;83.02
26915;BME280;14480;52.608;13.416;2023-04-03T10:58:31;141240.31;;;-11.28;82.65
26915;BME280;14480;52.608;13.416;2023-04-03T11:03:36;141216.91;;;-11.38;83.86
26915;BME280;14480;52.608;13.416;2023-04-03T11:08:44;141246.44;;;-11.26;83.78
26915;BME280;14480;52.608;13.416;2023-04-03T11:13:50;141293.28;;;-11.06;85.41
26915;BME280;14480;52.608;13.416;2023-04-03T11:18:57;141274.78;;;-11.14;86.44
26915;BME280;14480;52.608;13.416;2023-04-03T11:24:03;141236.63;;;-11.30;86.69
26915;BME280;14480;52.608;13.416;2023-04-03T11:29:12;141188.56;;;-11.50;86.30
26915;BME280;14480;52.608;13.416;2023-04-03T11:34:36;141187.34;;;-11.50;87.85
26915;BME280;14480;52.608;13.416;2023-04-03T11:39:51;141187.34;;;-11.50;88.41
26915;BME280;14480;52.608;13.416;2023-04-03T11:45:17;141186.13;;;-11.51;88.83
26915;BME280;14480;52.608;13.416;2023-04-03T11:50:31;141125.78;;;-11.75;90.60
26915;BME280;14480;52.608;13.416;2023-04-03T12:00:55;141127.03;;;-11.75;91.57
26915;BME280;14480;52.608;13.416;2023-04-03T12:11:25;141124.56;;;-11.76;92.49
26915;BME280;14480;52.608;13.416;2023-04-03T12:16:33;141138.09;;;-11.70;92.83
26915;BME280;14480;52.608;13.416;2023-04-03T12:22:06;141124.56;;;-11.76;91.72
26915;BME280;14480;52.608;13.416;2023-04-03T12:32:45;141221.81;;;-11.36;88.64
26915;BME280;14480;52.608;13.416;2023-04-03T12:43:23;141225.53;;;-11.34;87.95
26915;BME280;14480;52.608;13.416;2023-04-03T12:48:32;141225.53;;;-11.34;86.20
26915;BME280;14480;52.608;13.416;2023-04-03T12:53:36;141162.72;;;-11.60;87.48
26915;BME280;14480;52.608;13.416;2023-04-03T12:58:41;141168.84;;;-11.58;88.92
26915;BME280;14480;52.608;13.416;2023-04-03T13:03:47;141177.50;;;-11.54;90.56
26915;BME280;14480;52.608;13.416;2023-04-03T13:08:51;141156.56;;;-11.63;90.12
26915;BME280;14480;52.608;13.416;2023-04-03T13:13:59;141232.91;;;-11.31;89.56
26915;BME280;14480;52.608;13.416;2023-04-03T13:19:04;141304.34;;;-11.02;89.09
26915;BME280;14480;52.608;13.416;2023-04-03T13:24:08;141257.56;;;-11.21;87.84
26915;BME280;14480;52.608;13.416;2023-04-03T13:29:21;141289.56;;;-11.08;88.61
26915;BME280;14480;52.608;13.416;2023-04-03T13:34:36;141229.22;;;-11.33;90.13
26915;BME280;14480;52.608;13.416;2023-04-03T13:39:41;141152.88;;;-11.64;91.66
26915;BME280;14480;52.608;13.416;2023-04-03T13:44:46;141163.94;;;-11.60;91.98
26915;BME280;14480;52.608;13.416;2023-04-03T13:50:00;141160.25;;;-11.61;93.06
26915;BME280;14480;52.608;13.416;2023-04-03T13:55:15;141224.28;;;-11.35;93.47
26915;BME280;14480;52.608;13.416;2023-04-03T14:00:28;141140.53;;;-11.69;92.50
26915;BME280;14480;52.608;13.416;2023-04-03T14:05:34;141216.91;;;-11.38;93.58
26915;BME280;14480;52.608;13.416;2023-04-03T14:10:38;141184.88;;;-11.51;93.52
26915;BME280;14480;52.608;13.416;2023-04-03T14:15:42;141218.13;;;-11.37;92.64
26915;BME280;14480;52.608;13.416;2023-04-03T14:20:47;141234.16;;;-11.31;94.07
26915;BME280;14480;52.608;13.416;2023-04-03T14:25:51;141079.06;;;-11.95;92.78
26915;BME280;14480;52.608;13.416;2023-04-03T14:30:55;141207.06;;;-11.42;94.84
26915;BME280;14480;52.608;13.416;2023-04-03T14:36:00;141145.50;;;-11.67;96.49
26915;BME280;14480;52.608;13.416;2023-04-03T14:41:04;141102.44;;;-11.85;98.36
26915;BME280;14480;52.608;13.416;2023-04-03T14:46:28;141106.13;;;-11.84;98.51
26915;BME280;14480;52.608;13.416;2023-04-03T14:51:54;141076.59;;;-11.96;99.28
26915;BME280;14480;52.608;13.416;2023-04-03T14:56:58;141050.75;;;-12.07;100.00
26915;BME280;14480;52.608;13.416;2023-04-03T15:02:02;141128.25;;;-11.74;100.00
26915;BME280;14480;52.608;13.416;2023-04-03T15:07:10;141045.81;;;-12.09;100.00
26915;BME280;14480;52.608;13.416;2023-04-03T15:12:14;141017.53;;;-12.20;100.00
26915;BME280;14480;52.608;13.416;2023-04-03T15:17:19;141005.25;;;-12.25;100.00
26915;BME280;14480;52.608;13.416;2023-04-03T15:22:26;141001.56;;;-12.27;100.00
26915;BME280;14480;52.608;13.416;2023-04-03T15:27:30;141011.38;;;-12.23;100.00
26915;BME280;14480;52.608;13.416;2023-04-03T15:32:33;141051.97;;;-12.06;100.00
26915;BME280;14480;52.608;13.416;2023-04-03T15:37:40;141049.50;;;-12.07;100.00
26915;BME280;14480;52.608;13.416;2023-04-03T15:42:45;140992.91;;;-12.30;100.00
26915;BME280;14480;52.608;13.416;2023-04-03T15:47:49;140963.38;;;-12.43;100.00
26915;BME280;14480;52.608;13.416;2023-04-03T15:52:54;140937.53;;;-12.53;100.00
26915;BME280;14480;52.608;13.416;2023-04-03T15:58:03;140930.19;;;-12.56;100.00
26915;BME280;14480;52.608;13.416;2023-04-03T16:03:08;141005.25;;;-12.25;100.00
26915;BME280;14480;52.608;13.416;2023-04-03T16:08:14;141076.59;;;-11.96;100.00
26915;BME280;14480;52.608;13.416;2023-04-03T16:13:18;141172.59;;;-11.56;100.00
26915;BME280;14480;52.608;13.416;2023-04-03T16:18:21;141092.63;;;-11.89;100.00
26915;BME280;14480;52.608;13.416;2023-04-03T16:23:27;141039.69;;;-12.11;100.00
26915;BME280;14480;52.608;13.416;2023-04-03T16:28:30;141013.84;;;-12.22;100.00
26915;BME280;14480;52.608;13.416;2023-04-03T16:33:33;141017.53;;;-12.20;100.00
26915;BME280;14480;52.608;13.416;2023-04-03T16:38:38;140971.97;;;-12.39;100.00
26915;BME280;14480;52.608;13.416;2023-04-03T16:43:42;140971.97;;;-12.39;100.00
26915;BME280;14480;52.608;13.416;2023-04-03T16:48:46;140999.06;;;-12.28;100.00
26915;BME280;14480;52.608;13.416;2023-04-03T16:53:53;140915.41;;;-12.62;100.00
26915;BME280;14480;52.608;13.416;2023-04-03T16:58:57;140980.63;;;-12.35;100.00
26915;BME280;14480;52.608;13.416;2023-04-03T17:04:02;140933.88;;;-12.55;100.00
26915;BME280;14480;52.608;13.416;2023-04-03T17:09:07;140885.88;;;-12.75;100.00
26915;BME280;14480;52.608;13.416;2023-04-03T17:14:11;140868.69;;;-12.82;100.00
26915;BME280;14480;52.608;13.416;2023-04-03T17:19:15;140869.91;;;-12.81;100.00
26915;BME280;14480;52.608;13.416;2023-04-03T17:24:20;140874.84;;;-12.79;100.00
26915;BME280;14480;52.608;13.416;2023-04-03T17:29:23;140855.13;;;-12.87;100.00
26915;BME280;14480;52.608;13.416;2023-04-03T17:34:27;140852.69;;;-12.88;100.00
26915;BME280;14480;52.608;13.416;2023-04-03T17:39:32;140834.28;;;-12.96;100.00
26915;BME280;14480;52.608;13.416;2023-04-03T17:44:35;140801.03;;;-13.10;100.00
26915;BME280;14480;52.608;13.416;2023-04-03T17:49:38;140760.53;;;-13.27;100.00
26915;BME280;14480;52.608;13.416;2023-04-03T17:54:43;140749.44;;;-13.31;100.00
26915;BME280;14480;52.608;13.416;2023-04-03T17:59:47;140758.06;;;-13.28;100.00
26915;BME280;14480;52.608;13.416;2023-04-03T18:04:51;140735.94;;;-13.37;100.00
26915;BME280;14480;52.608;13.416;2023-04-03T18:09:59;140678.19;;;-13.61;100.00
26915;BME280;14480;52.608;13.416;2023-04-03T18:15:06;140690.47;;;-13.56;100.00
26915;BME280;14480;52.608;13.416;2023-04-03T18:20:10;140664.66;;;-13.66;100.00
26915;BME280;14480;52.608;13.416;2023-04-03T18:25:18;140643.78;;;-13.75;100.00
26915;BME280;14480;52.608;13.416;2023-04-03T18:30:22;140630.25;;;-13.80;100.00
26915;BME280;14480;52.608;13.416;2023-04-03T18:35:30;140604.44;;;-13.91;100.00
26915;BME280;14480;52.608;13.416;2023-04-03T18:40:35;140627.81;;;-13.81;100.00
26915;BME280;14480;52.608;13.416;2023-04-03T18:45:42;140602.00;;;-13.92;100.00
26915;BME280;14480;52.608;13.416;2023-04-03T18:50:45;140595.88;;;-13.95;100.00
26915;BME280;14480;52.608;13.416;2023-04-03T18:55:51;140597.09;;;-13.94;100.00
26915;BME280;14480;52.608;13.416;2023-04-03T19:00:55;140598.31;;;-13.94;100.00
26915;BME280;14480;52.608;13.416;2023-04-03T19:06:00;140600.78;;;-13.93;100.00
26915;BME280;14480;52.608;13.416;2023-04-03T19:11:06;140626.56;;;-13.82;100.00
26915;BME280;14480;52.608;13.416;2023-04-03T19:16:12;140592.19;;;-13.96;100.00
26915;BME280;14480;52.608;13.416;2023-04-03T19:21:16;140574.97;;;-14.03;100.00
26915;BME280;14480;52.608;13.416;2023-04-03T19:26:21;140576.19;;;-14.03;100.00
26915;BME280;14480;52.608;13.416;2023-04-03T19:31:24;140566.38;;;-14.07;100.00
26915;BME280;14480;52.608;13.416;2023-04-03T19:36:28;140543.03;;;-14.17;100.00
26915;BME280;14480;52.608;13.416;2023-04-03T19:41:34;140562.72;;;-14.08;100.00
26915;BME280;14480;52.608;13.416;2023-04-03T19:46:38;140528.31;;;-14.23;100.00
26915;BME280;14480;52.608;13.416;2023-04-03T19:51:52;140525.84;;;-14.24;100.00
26915;BME280;14480;52.608;13.416;2023-04-03T19:56:58;140491.47;;;-14.38;100.00
26915;BME280;14480;52.608;13.416;2023-04-03T20:02:01;140497.59;;;-14.35;100.00
26915;BME280;14480;52.608;13.416;2023-04-03T20:07:05;140464.50;;;-14.49;100.00
26915;BME280;14480;52.608;13.416;2023-04-03T20:12:10;140439.94;;;-14.59;100.00
26915;BME280;14480;52.608;13.416;2023-04-03T20:17:14;140406.78;;;-14.73;100.00
26915;BME280;14480;52.608;13.416;2023-04-03T20:22:17;140371.22;;;-14.88;100.00
26915;BME280;14480;52.608;13.416;2023-04-03T20:27:23;140363.88;;;-14.91;100.00
26915;BME280;14480;52.608;13.416;2023-04-03T20:32:30;140347.88;;;-14.97;100.00
26915;BME280;14480;52.608;13.416;2023-04-03T20:37:34;140276.75;;;-15.27;100.00
26915;BME280;14480;52.608;13.416;2023-04-03T20:42:40;140224.00;;;-15.49;100.00
26915;BME280;14480;52.608;13.416;2023-04-03T20:47:44;140206.81;;;-15.56;100.00
26915;BME280;14480;52.608;13.416;2023-04-03T20:52:48;140224.00;;;-15.49;100.00
26915;BME280;14480;52.608;13.416;2023-04-03T20:57:52;140205.56;;;-15.56;100.00
26915;BME280;14480;52.608;13.416;2023-04-03T21:03:01;140177.41;;;-15.68;100.00
26915;BME280;14480;52.608;13.416;2023-04-03T21:24:05;140081.81;;;-16.08;100.00
26915;BME280;14480;52.608;13.416;2023-04-03T21:29:11;140037.66;;;-16.26;100.00
26915;BME280;14480;52.608;13.416;2023-04-03T21:34:16;140027.88;;;-16.30;100.00
26915;BME280;14480;52.608;13.416;2023-04-03T21:39:20;140021.69;;;-16.33;100.00
26915;BME280;14480;52.608;13.416;2023-04-03T21:44:26;140007.03;;;-16.39;100.00
